Pagrindinis puslapis
METAR-TAF:

METAR-TAF

Oro uostai :

Tirana, Albanija

platuma: 41-20N, ilguma: 019-47E, Aukštis: 89 m

Dabartinis oras

Ataskaita buvo paskelbta 32 minutes, ne 21:50 UTC
Vėjas 3 kt iš Pietų/Pietryčių
Temperatūra 9°C
Drėgmė 93%
Slėgis 1019 hPa
Matomumas: 8000 m
Išsisklaidę debesys ne aukštis 3000 ft
Su prošvaistėmis ne aukštis 6000 ft

METAR: LATI 272150Z 16003KT 8000 SCT030 BKN060 09/08 Q1019 NOSIG

Laikas: 23:22 (22:22 UTC)

Prognozė

Ataskaita buvo paskelbta 5 valandos ir 22 minutes, ne 17:00 UTC
Prognozė galioja nuo 27 metu 18 UTC su 28 metu 18 UTC
Vėjas 7 kt iš Pietų/Pietryčių
Matomumas 10 km arba daugiau
Mažai debesys ne aukštis 2000 ft
Išsisklaidę debesys ne aukštis 6000 ft

TAF: LATI 271700Z 2718/2818 16007KT 9999 FEW020 SCT060

Orai ataskaitas ir orų prognozės (METAR, TAF).

turimą stotys yra geltonos ir raudonos taškus žemėlapyje.

Perkelti pele per norėdami pamatyti stoties vardą.

Tada spustelėkite, norėdami matyti oro stebėjimo ir prognozės.

Norėdami pakeisti žemėlapį: spustelėkite ant žalios mygtukų su juodo kryžiaus žemyn,; žalią mygtuką su brūkšneliu, jei norite nutolinti; arba žalių rodyklių gretimoms žemėlapius.


METAR-TAF: